Campbell Foss — WDC7754 — position and weather

sailwx.info

Track history (hours):
 
Tides and Currents Weather Stations Pressure Air Temp Water Temp Dewpoint Dewpoint Depression Visibility Wind Speed Wind Dir Waves Ship Positions

Campbell Foss

Owner: Foss Maritime Co., Seattle, WA. More information available from US FCC via Universal Licensing System and Coast Guard Vessel Documentation Center.

Last reported at 2014-Nov-21 17:30 UTC. Time now 2014-Nov-21 17:59 UTC.
Position N 33°44' W 118°17'.

Length 23 m; draft 16 m.

Type: Tug. MMSI: 367076360.

Date/timePositionNaut miles runAvg speedWind from/ knotsBaromVisibWave heightAir tempDewpointWater temp
2014-Nov-21 17:30N 33°44' W 118°17'2 1.6
2014-Nov-21 16:33N 33°46' W 118°16'2 2.4
2014-Nov-21 15:33N 33°46' W 118°13'0 0.1
2014-Nov-21 14:33N 33°46' W 118°13'0 0.0
2014-Nov-21 13:33N 33°46' W 118°13'0 0.0
2014-Nov-21 12:33N 33°46' W 118°13'0 0.0
2014-Nov-21 11:33N 33°46' W 118°13'0 0.0
2014-Nov-21 10:33N 33°46' W 118°13'0 0.0
2014-Nov-21 09:33N 33°46' W 118°13'0 0.0
2014-Nov-21 08:33N 33°46' W 118°13'0 0.0
2014-Nov-21 07:33N 33°46' W 118°13'0 0.0
2014-Nov-21 06:33N 33°46' W 118°13'0 0.0
2014-Nov-21 05:33N 33°46' W 118°13'0 0.0
2014-Nov-21 04:18N 33°46' W 118°13'0 0.0
2014-Nov-21 03:33N 33°46' W 118°13'0 0.0
2014-Nov-21 02:33N 33°46' W 118°13'0 0.0
2014-Nov-21 01:33N 33°46' W 118°13'0 0.0
2014-Nov-21 00:33N 33°46' W 118°13'0 0.0
2014-Nov-20 23:33N 33°46' W 118°13'0 0.0
2014-Nov-20 22:33N 33°46' W 118°13'0 0.0
2014-Nov-20 21:33N 33°46' W 118°13'2 2.4
2014-Nov-20 20:31N 33°46' W 118°16'0 0.0
2014-Nov-20 19:33N 33°46' W 118°16'0 0.0
2014-Nov-20 18:33N 33°46' W 118°16'0 0.0
2014-Nov-20 17:31N 33°46' W 118°16'0 0.0
2014-Nov-20 16:29N 33°46' W 118°16'0 0.0
2014-Nov-20 15:33N 33°46' W 118°16'2 0.7
2014-Nov-20 12:33N 33°44' W 118°16'1 1.1
2014-Nov-20 11:28N 33°45' W 118°16'3 3.7
2014-Nov-20 10:33N 33°46' W 118°13'0 0.0
2014-Nov-20 09:31N 33°46' W 118°13'0 0.0
2014-Nov-20 08:31N 33°46' W 118°13'0 0.0
2014-Nov-20 07:34N 33°46' W 118°13'0 0.0
2014-Nov-20 06:34N 33°46' W 118°13'0 0.0
2014-Nov-20 05:34N 33°46' W 118°13'0 0.0
2014-Nov-20 04:34N 33°46' W 118°13'0 0.0
2014-Nov-20 03:31N 33°46' W 118°13'1 0.8
2014-Nov-20 02:34N 33°46' W 118°13'1 0.7
2014-Nov-20 01:34N 33°46' W 118°13'1 0.6
2014-Nov-20 00:34N 33°46' W 118°13'2 1.6
2014-Nov-19 23:33N 33°45' W 118°12'1 0.9
2014-Nov-19 22:33N 33°45' W 118°13'2 1.7
2014-Nov-19 21:34N 33°43' W 118°14'8 7.8
2014-Nov-19 20:28N 33°43' W 118°24'7 7.8
2014-Nov-19 19:31N 33°50' W 118°27'4 4.2
2014-Nov-19 18:34N 33°54' W 118°27'0 0.0
2014-Nov-19 17:34N 33°54' W 118°27'2 0.8
2014-Nov-19 15:10N 33°52' W 118°27'12 7.6
2014-Nov-19 13:31N 33°42' W 118°19'6 6.4
2014-Nov-19 12:32N 33°45' W 118°13'1 1.1
2014-Nov-19 11:33N 33°46' W 118°13'0 0.0
2014-Nov-19 10:34N 33°46' W 118°13'0 0.0
2014-Nov-19 09:33N 33°46' W 118°13'0 0.0
2014-Nov-19 08:33N 33°46' W 118°13'0 0.0
2014-Nov-19 07:33N 33°46' W 118°13'0 0.0
2014-Nov-19 06:34N 33°46' W 118°13'0 0.0
2014-Nov-19 05:33N 33°46' W 118°13'0 0.0
2014-Nov-19 04:33N 33°46' W 118°13'0 0.0
2014-Nov-19 03:34N 33°46' W 118°13'0 0.0
2014-Nov-19 02:34N 33°46' W 118°13'2 1.5
2014-Nov-19 01:33N 33°46' W 118°15'3 3.1
2014-Nov-19 00:34N 33°43' W 118°15'3 3.4
2014-Nov-18 23:33N 33°46' W 118°13'0 0.0
2014-Nov-18 22:34N 33°46' W 118°13'3 2.7
2014-Nov-18 21:33N 33°45' W 118°16'3 2.6
2014-Nov-18 20:32N 33°46' W 118°13'1 0.9
2014-Nov-18 19:33N 33°45' W 118°13'0 0.0
2014-Nov-18 18:33N 33°45' W 118°13'0 0.0
2014-Nov-18 17:33N 33°45' W 118°13'0 0.4
2014-Nov-18 16:32N 33°46' W 118°13'1 0.5
2014-Nov-18 15:34N 33°45' W 118°13'2 1.4
2014-Nov-18 14:28N 33°44' W 118°13'3 2.8
2014-Nov-18 13:34N 33°46' W 118°16'1 1.2
2014-Nov-18 12:33N 33°46' W 118°14'1 1.3
2014-Nov-18 11:33N 33°46' W 118°13'0 0.0
2014-Nov-18 10:33N 33°46' W 118°13'0 0.0
2014-Nov-18 09:34N 33°46' W 118°13'0 0.0
2014-Nov-18 08:34N 33°46' W 118°13'0 0.0
2014-Nov-18 05:28N 33°46' W 118°13'0 0.0
2014-Nov-18 04:33N 33°46' W 118°13'0 0.0
2014-Nov-18 03:30N 33°46' W 118°13'0 0.0
2014-Nov-18 02:34N 33°46' W 118°13'0 0.0
2014-Nov-16 18:33N 33°46' W 118°13'0 0.0
2014-Nov-16 17:33N 33°46' W 118°13'0 0.0
2014-Nov-16 16:33N 33°46' W 118°13'0 0.0
2014-Nov-16 15:33N 33°46' W 118°13'0 0.0
2014-Nov-16 14:33N 33°46' W 118°13'0 0.0
2014-Nov-16 13:33N 33°46' W 118°13'0 0.0
2014-Nov-16 12:33N 33°46' W 118°13'0 0.0
2014-Nov-16 11:33N 33°46' W 118°13'0 0.0
2014-Nov-16 10:33N 33°46' W 118°13'1 0.9
2014-Nov-16 09:33N 33°45' W 118°13'2 0.8
2014-Nov-16 07:03N 33°44' W 118°12'3 5.3
2014-Nov-16 06:32N 33°46' W 118°13'0 0.0
2014-Nov-16 05:33N 33°46' W 118°13'0 0.0
2014-Nov-16 04:33N 33°46' W 118°13'0 0.0
2014-Nov-16 03:33N 33°46' W 118°13'1 0.6
2014-Nov-16 02:33N 33°46' W 118°13'0 0.5
2014-Nov-16 01:33N 33°46' W 118°14'1 0.9
2014-Nov-16 00:33N 33°46' W 118°13'0 0.0
2014-Nov-15 23:33N 33°46' W 118°13'0 0.0
2014-Nov-15 22:33N 33°46' W 118°13'0 0.0
2014-Nov-15 21:33N 33°46' W 118°13'2 1.7
2014-Nov-15 20:33N 33°45' W 118°13'1 0.7
2014-Nov-15 19:15N 33°44' W 118°14'1 0.2
2014-Nov-15 14:24N 33°44' W 118°12'2 0.7
2014-Nov-15 11:33N 33°46' W 118°13'0 0.0
2014-Nov-15 10:33N 33°46' W 118°13'0 0.0
2014-Nov-15 09:33N 33°46' W 118°13'0 0.0
2014-Nov-15 08:33N 33°46' W 118°13'0 0.0
2014-Nov-15 07:33N 33°46' W 118°13'0 0.0
2014-Nov-15 06:33N 33°46' W 118°13'0 0.0
2014-Nov-15 05:33N 33°46' W 118°13'0 0.0
2014-Nov-15 04:33N 33°46' W 118°13'0 0.0
2014-Nov-15 03:33N 33°46' W 118°13'0 0.4
2014-Nov-15 02:33N 33°46' W 118°13'0 0.3
2014-Nov-15 01:33N 33°46' W 118°13'2 1.5
2014-Nov-15 00:32N 33°45' W 118°13'0 0.5
2014-Nov-14 23:33N 33°45' W 118°12'1 1.0
2014-Nov-14 22:33N 33°46' W 118°13'1 0.7
2014-Nov-14 21:33N 33°46' W 118°13'0 0.0
2014-Nov-14 20:33N 33°46' W 118°13'0 0.0
2014-Nov-14 19:33N 33°46' W 118°13'2 2.2
2014-Nov-14 18:33N 33°46' W 118°15'3 2.0
2014-Nov-14 17:16N 33°44' W 118°13'2 3.5
2014-Nov-14 16:33N 33°46' W 118°14'3 2.0
2014-Nov-14 15:17N 33°45' W 118°16'1 0.9
2014-Nov-14 14:27N 33°44' W 118°16'2 0.7
2014-Nov-14 11:20N 33°44' W 118°14'3 3.6
2014-Nov-14 10:33N 33°46' W 118°13'0 0.0
2014-Nov-14 09:33N 33°46' W 118°13'0 0.0
2014-Nov-14 08:33N 33°46' W 118°13'0 0.0
2014-Nov-14 07:32N 33°46' W 118°13'3 3.3
2014-Nov-14 06:33N 33°44' W 118°10'3 0.9
2014-Nov-14 03:24N 33°44' W 118°13'1 1.7
2014-Nov-14 02:33N 33°45' W 118°13'1 1.3
2014-Nov-14 01:33N 33°44' W 118°12'0 0.1
2014-Nov-14 00:33N 33°44' W 118°12'0 0.2
2014-Nov-13 23:33N 33°44' W 118°12'2 1.5
2014-Nov-13 22:33N 33°46' W 118°13'1 0.6
2014-Nov-13 21:33N 33°46' W 118°13'0 0.0
2014-Nov-13 20:33N 33°46' W 118°13'2 2.0
2014-Nov-13 19:33N 33°44' W 118°13'2 2.5
2014-Nov-13 18:33N 33°46' W 118°16'0 0.1
2014-Nov-13 17:33N 33°46' W 118°16'0 0.0
2014-Nov-13 16:32N 33°46' W 118°16'2 1.8
2014-Nov-13 15:24N 33°44' W 118°16'0 0.1
2014-Nov-13 14:33N 33°44' W 118°16'2 2.4
2014-Nov-13 13:33N 33°45' W 118°13'2 1.6
2014-Nov-13 12:33N 33°46' W 118°13'4 2.9
2014-Nov-13 11:10N 33°43' W 118°11'3 4.8
2014-Nov-13 10:33N 33°45' W 118°13'1 1.0
2014-Nov-13 09:33N 33°46' W 118°13'0 0.0
2014-Nov-13 08:32N 33°46' W 118°13'0 0.0
2014-Nov-13 07:32N 33°46' W 118°13'0 0.0
2014-Nov-13 05:33N 33°46' W 118°13'0 0.0
2014-Nov-13 04:33N 33°46' W 118°13'0 0.0
2014-Nov-13 03:23N 33°46' W 118°13'0 0.0
2014-Nov-13 02:10N 33°46' W 118°13'0 0.0
2014-Nov-13 00:33N 33°46' W 118°13'0 0.0
2014-Nov-12 23:33N 33°46' W 118°13'1 0.6
2014-Nov-12 22:29N 33°46' W 118°13'1 0.7
2014-Nov-12 21:33N 33°46' W 118°13'0 0.0
2014-Nov-12 20:33N 33°46' W 118°13'0 0.0
2014-Nov-12 19:33N 33°46' W 118°13'0 0.0
2014-Nov-12 18:33N 33°46' W 118°13'0 0.0
2014-Nov-12 17:33N 33°46' W 118°13'2 1.1
2014-Nov-12 15:33N 33°46' W 118°16'2 0.6
2014-Nov-12 12:16N 33°44' W 118°17'2 2.2
2014-Nov-12 11:33N 33°46' W 118°16'2 2.4
2014-Nov-12 10:31N 33°46' W 118°13'0 0.1
2014-Nov-12 09:33N 33°46' W 118°13'1 0.6
2014-Nov-12 08:33N 33°46' W 118°13'0 0.0
2014-Nov-12 07:33N 33°46' W 118°13'0 0.0
2014-Nov-12 06:33N 33°46' W 118°13'0 0.0
2014-Nov-12 05:33N 33°46' W 118°13'0 0.0
2014-Nov-12 04:33N 33°46' W 118°13'1 0.6
2014-Nov-12 03:33N 33°46' W 118°13'0 0.0
2014-Nov-12 02:33N 33°46' W 118°13'0 0.0
2014-Nov-12 01:33N 33°46' W 118°13'1 1.2
2014-Nov-12 00:33N 33°45' W 118°12'1 1.2
2014-Nov-11 23:33N 33°46' W 118°13'2 2.0
2014-Nov-11 22:33N 33°44' W 118°12'1 0.7
2014-Nov-11 21:30N 33°43' W 118°12'2 2.3
2014-Nov-11 20:33N 33°45' W 118°13'3 2.5
2014-Nov-11 19:33N 33°46' W 118°16'3 1.5
2014-Nov-11 17:33N 33°44' W 118°13'  
Track history (hours):
 
Tides and Currents Weather Stations Pressure Air Temp Water Temp Dewpoint Dewpoint Depression Visibility Wind Speed Wind Dir Waves Ship Positions

Campbell Foss

Owner: Foss Maritime Co., Seattle, WA. More information available from US FCC via Universal Licensing System and Coast Guard Vessel Documentation Center.

Last reported at 2014-Nov-21 17:30 UTC. Time now 2014-Nov-21 17:59 UTC.
Position N 33°44' W 118°17'.

Length 23 m; draft 16 m.

Type: Tug. MMSI: 367076360.

Date/timePositionNaut miles runAvg speedWind from/ knotsBaromVisibWave heightAir tempDewpointWater temp
2014-Nov-21 17:30N 33°44' W 118°17'2 1.6
2014-Nov-21 16:33N 33°46' W 118°16'2 2.4
2014-Nov-21 15:33N 33°46' W 118°13'0 0.1
2014-Nov-21 14:33N 33°46' W 118°13'0 0.0
2014-Nov-21 13:33N 33°46' W 118°13'0 0.0
2014-Nov-21 12:33N 33°46' W 118°13'0 0.0
2014-Nov-21 11:33N 33°46' W 118°13'0 0.0
2014-Nov-21 10:33N 33°46' W 118°13'0 0.0
2014-Nov-21 09:33N 33°46' W 118°13'0 0.0
2014-Nov-21 08:33N 33°46' W 118°13'0 0.0
2014-Nov-21 07:33N 33°46' W 118°13'0 0.0
2014-Nov-21 06:33N 33°46' W 118°13'0 0.0
2014-Nov-21 05:33N 33°46' W 118°13'0 0.0
2014-Nov-21 04:18N 33°46' W 118°13'0 0.0
2014-Nov-21 03:33N 33°46' W 118°13'0 0.0
2014-Nov-21 02:33N 33°46' W 118°13'0 0.0
2014-Nov-21 01:33N 33°46' W 118°13'0 0.0
2014-Nov-21 00:33N 33°46' W 118°13'0 0.0
2014-Nov-20 23:33N 33°46' W 118°13'0 0.0
2014-Nov-20 22:33N 33°46' W 118°13'0 0.0
2014-Nov-20 21:33N 33°46' W 118°13'2 2.4
2014-Nov-20 20:31N 33°46' W 118°16'0 0.0
2014-Nov-20 19:33N 33°46' W 118°16'0 0.0
2014-Nov-20 18:33N 33°46' W 118°16'0 0.0
2014-Nov-20 17:31N 33°46' W 118°16'0 0.0
2014-Nov-20 16:29N 33°46' W 118°16'0 0.0
2014-Nov-20 15:33N 33°46' W 118°16'2 0.7
2014-Nov-20 12:33N 33°44' W 118°16'1 1.1
2014-Nov-20 11:28N 33°45' W 118°16'3 3.7
2014-Nov-20 10:33N 33°46' W 118°13'0 0.0
2014-Nov-20 09:31N 33°46' W 118°13'0 0.0
2014-Nov-20 08:31N 33°46' W 118°13'0 0.0
2014-Nov-20 07:34N 33°46' W 118°13'0 0.0
2014-Nov-20 06:34N 33°46' W 118°13'0 0.0
2014-Nov-20 05:34N 33°46' W 118°13'0 0.0
2014-Nov-20 04:34N 33°46' W 118°13'0 0.0
2014-Nov-20 03:31N 33°46' W 118°13'1 0.8
2014-Nov-20 02:34N 33°46' W 118°13'1 0.7
2014-Nov-20 01:34N 33°46' W 118°13'1 0.6
2014-Nov-20 00:34N 33°46' W 118°13'2 1.6
2014-Nov-19 23:33N 33°45' W 118°12'1 0.9
2014-Nov-19 22:33N 33°45' W 118°13'2 1.7
2014-Nov-19 21:34N 33°43' W 118°14'8 7.8
2014-Nov-19 20:28N 33°43' W 118°24'7 7.8
2014-Nov-19 19:31N 33°50' W 118°27'4 4.2
2014-Nov-19 18:34N 33°54' W 118°27'0 0.0
2014-Nov-19 17:34N 33°54' W 118°27'2 0.8
2014-Nov-19 15:10N 33°52' W 118°27'12 7.6
2014-Nov-19 13:31N 33°42' W 118°19'6 6.4
2014-Nov-19 12:32N 33°45' W 118°13'1 1.1
2014-Nov-19 11:33N 33°46' W 118°13'0 0.0
2014-Nov-19 10:34N 33°46' W 118°13'0 0.0
2014-Nov-19 09:33N 33°46' W 118°13'0 0.0
2014-Nov-19 08:33N 33°46' W 118°13'0 0.0
2014-Nov-19 07:33N 33°46' W 118°13'0 0.0
2014-Nov-19 06:34N 33°46' W 118°13'0 0.0
2014-Nov-19 05:33N 33°46' W 118°13'0 0.0
2014-Nov-19 04:33N 33°46' W 118°13'0 0.0
2014-Nov-19 03:34N 33°46' W 118°13'0 0.0
2014-Nov-19 02:34N 33°46' W 118°13'2 1.5
2014-Nov-19 01:33N 33°46' W 118°15'3 3.1
2014-Nov-19 00:34N 33°43' W 118°15'3 3.4
2014-Nov-18 23:33N 33°46' W 118°13'0 0.0
2014-Nov-18 22:34N 33°46' W 118°13'3 2.7
2014-Nov-18 21:33N 33°45' W 118°16'3 2.6
2014-Nov-18 20:32N 33°46' W 118°13'1 0.9
2014-Nov-18 19:33N 33°45' W 118°13'0 0.0
2014-Nov-18 18:33N 33°45' W 118°13'0 0.0
2014-Nov-18 17:33N 33°45' W 118°13'0 0.4
2014-Nov-18 16:32N 33°46' W 118°13'1 0.5
2014-Nov-18 15:34N 33°45' W 118°13'2 1.4
2014-Nov-18 14:28N 33°44' W 118°13'3 2.8
2014-Nov-18 13:34N 33°46' W 118°16'1 1.2
2014-Nov-18 12:33N 33°46' W 118°14'1 1.3
2014-Nov-18 11:33N 33°46' W 118°13'0 0.0
2014-Nov-18 10:33N 33°46' W 118°13'0 0.0
2014-Nov-18 09:34N 33°46' W 118°13'0 0.0
2014-Nov-18 08:34N 33°46' W 118°13'0 0.0
2014-Nov-18 05:28N 33°46' W 118°13'0 0.0
2014-Nov-18 04:33N 33°46' W 118°13'0 0.0
2014-Nov-18 03:30N 33°46' W 118°13'0 0.0
2014-Nov-18 02:34N 33°46' W 118°13'0 0.0
2014-Nov-16 18:33N 33°46' W 118°13'0 0.0
2014-Nov-16 17:33N 33°46' W 118°13'0 0.0
2014-Nov-16 16:33N 33°46' W 118°13'0 0.0
2014-Nov-16 15:33N 33°46' W 118°13'0 0.0
2014-Nov-16 14:33N 33°46' W 118°13'0 0.0
2014-Nov-16 13:33N 33°46' W 118°13'0 0.0
2014-Nov-16 12:33N 33°46' W 118°13'0 0.0
2014-Nov-16 11:33N 33°46' W 118°13'0 0.0
2014-Nov-16 10:33N 33°46' W 118°13'1 0.9
2014-Nov-16 09:33N 33°45' W 118°13'2 0.8
2014-Nov-16 07:03N 33°44' W 118°12'3 5.3
2014-Nov-16 06:32N 33°46' W 118°13'0 0.0
2014-Nov-16 05:33N 33°46' W 118°13'0 0.0
2014-Nov-16 04:33N 33°46' W 118°13'0 0.0
2014-Nov-16 03:33N 33°46' W 118°13'1 0.6
2014-Nov-16 02:33N 33°46' W 118°13'0 0.5
2014-Nov-16 01:33N 33°46' W 118°14'1 0.9
2014-Nov-16 00:33N 33°46' W 118°13'0 0.0
2014-Nov-15 23:33N 33°46' W 118°13'0 0.0
2014-Nov-15 22:33N 33°46' W 118°13'0 0.0
2014-Nov-15 21:33N 33°46' W 118°13'2 1.7
2014-Nov-15 20:33N 33°45' W 118°13'1 0.7
2014-Nov-15 19:15N 33°44' W 118°14'1 0.2
2014-Nov-15 14:24N 33°44' W 118°12'2 0.7
2014-Nov-15 11:33N 33°46' W 118°13'0 0.0
2014-Nov-15 10:33N 33°46' W 118°13'0 0.0
2014-Nov-15 09:33N 33°46' W 118°13'0 0.0
2014-Nov-15 08:33N 33°46' W 118°13'0 0.0
2014-Nov-15 07:33N 33°46' W 118°13'0 0.0
2014-Nov-15 06:33N 33°46' W 118°13'0 0.0
2014-Nov-15 05:33N 33°46' W 118°13'0 0.0
2014-Nov-15 04:33N 33°46' W 118°13'0 0.0
2014-Nov-15 03:33N 33°46' W 118°13'0 0.4
2014-Nov-15 02:33N 33°46' W 118°13'0 0.3
2014-Nov-15 01:33N 33°46' W 118°13'2 1.5
2014-Nov-15 00:32N 33°45' W 118°13'0 0.5
2014-Nov-14 23:33N 33°45' W 118°12'1 1.0
2014-Nov-14 22:33N 33°46' W 118°13'1 0.7
2014-Nov-14 21:33N 33°46' W 118°13'0 0.0
2014-Nov-14 20:33N 33°46' W 118°13'0 0.0
2014-Nov-14 19:33N 33°46' W 118°13'2 2.2
2014-Nov-14 18:33N 33°46' W 118°15'3 2.0
2014-Nov-14 17:16N 33°44' W 118°13'2 3.5
2014-Nov-14 16:33N 33°46' W 118°14'3 2.0
2014-Nov-14 15:17N 33°45' W 118°16'1 0.9
2014-Nov-14 14:27N 33°44' W 118°16'2 0.7
2014-Nov-14 11:20N 33°44' W 118°14'3 3.6
2014-Nov-14 10:33N 33°46' W 118°13'0 0.0
2014-Nov-14 09:33N 33°46' W 118°13'0 0.0
2014-Nov-14 08:33N 33°46' W 118°13'0 0.0
2014-Nov-14 07:32N 33°46' W 118°13'3 3.3
2014-Nov-14 06:33N 33°44' W 118°10'3 0.9
2014-Nov-14 03:24N 33°44' W 118°13'1 1.7
2014-Nov-14 02:33N 33°45' W 118°13'1 1.3
2014-Nov-14 01:33N 33°44' W 118°12'0 0.1
2014-Nov-14 00:33N 33°44' W 118°12'0 0.2
2014-Nov-13 23:33N 33°44' W 118°12'2 1.5
2014-Nov-13 22:33N 33°46' W 118°13'1 0.6
2014-Nov-13 21:33N 33°46' W 118°13'0 0.0
2014-Nov-13 20:33N 33°46' W 118°13'2 2.0
2014-Nov-13 19:33N 33°44' W 118°13'2 2.5
2014-Nov-13 18:33N 33°46' W 118°16'0 0.1
2014-Nov-13 17:33N 33°46' W 118°16'0 0.0
2014-Nov-13 16:32N 33°46' W 118°16'2 1.8
2014-Nov-13 15:24N 33°44' W 118°16'0 0.1
2014-Nov-13 14:33N 33°44' W 118°16'2 2.4
2014-Nov-13 13:33N 33°45' W 118°13'2 1.6
2014-Nov-13 12:33N 33°46' W 118°13'4 2.9
2014-Nov-13 11:10N 33°43' W 118°11'3 4.8
2014-Nov-13 10:33N 33°45' W 118°13'1 1.0
2014-Nov-13 09:33N 33°46' W 118°13'0 0.0
2014-Nov-13 08:32N 33°46' W 118°13'0 0.0
2014-Nov-13 07:32N 33°46' W 118°13'0 0.0
2014-Nov-13 05:33N 33°46' W 118°13'0 0.0
2014-Nov-13 04:33N 33°46' W 118°13'0 0.0
2014-Nov-13 03:23N 33°46' W 118°13'0 0.0
2014-Nov-13 02:10N 33°46' W 118°13'0 0.0
2014-Nov-13 00:33N 33°46' W 118°13'0 0.0
2014-Nov-12 23:33N 33°46' W 118°13'1 0.6
2014-Nov-12 22:29N 33°46' W 118°13'1 0.7
2014-Nov-12 21:33N 33°46' W 118°13'0 0.0
2014-Nov-12 20:33N 33°46' W 118°13'0 0.0
2014-Nov-12 19:33N 33°46' W 118°13'0 0.0
2014-Nov-12 18:33N 33°46' W 118°13'0 0.0
2014-Nov-12 17:33N 33°46' W 118°13'2 1.1
2014-Nov-12 15:33N 33°46' W 118°16'2 0.6
2014-Nov-12 12:16N 33°44' W 118°17'2 2.2
2014-Nov-12 11:33N 33°46' W 118°16'2 2.4
2014-Nov-12 10:31N 33°46' W 118°13'0 0.1
2014-Nov-12 09:33N 33°46' W 118°13'1 0.6
2014-Nov-12 08:33N 33°46' W 118°13'0 0.0
2014-Nov-12 07:33N 33°46' W 118°13'0 0.0
2014-Nov-12 06:33N 33°46' W 118°13'0 0.0
2014-Nov-12 05:33N 33°46' W 118°13'0 0.0
2014-Nov-12 04:33N 33°46' W 118°13'1 0.6
2014-Nov-12 03:33N 33°46' W 118°13'0 0.0
2014-Nov-12 02:33N 33°46' W 118°13'0 0.0
2014-Nov-12 01:33N 33°46' W 118°13'1 1.2
2014-Nov-12 00:33N 33°45' W 118°12'1 1.2
2014-Nov-11 23:33N 33°46' W 118°13'2 2.0
2014-Nov-11 22:33N 33°44' W 118°12'1 0.7
2014-Nov-11 21:30N 33°43' W 118°12'2 2.3
2014-Nov-11 20:33N 33°45' W 118°13'3 2.5
2014-Nov-11 19:33N 33°46' W 118°16'3 1.5
2014-Nov-11 17:33N 33°44' W 118°13'  

Dump ship's entire track history